Time;durP1;ratioP1;P1;durP2;ratioP2;P2;SDS_P1;SDS_P2;PMS_P1;PMS_P2;Temp;Humidity;BMP_temperature;BMP_pressure;BME280_temperature;BME280_humidity;BME280_pressure;Samples;Min_cycle;Max_cycle;Signal;HPM_P1;HPM_P2
2021/08/02 00:00:50;;;;;;;5.25;4.85;;;;;;;31.56;42.09;98718.30;1726002;83;20950;-51
2021/08/02 00:03:43;;;;;;;6.00;5.40;;;;;;;31.54;42.13;98729.89;1703252;83;21078;-52
2021/08/02 00:06:11;;;;;;;5.67;5.28;;;;;;;31.54;42.16;98733.97;1749945;81;21607;-53
2021/08/02 00:08:38;;;;;;;6.55;5.53;;;;;;;31.52;42.17;98734.70;1725420;81;21045;-50
2021/08/02 00:11:06;;;;;;;5.85;5.35;;;;;;;31.51;42.25;98739.31;1756098;81;21034;-54
2021/08/02 00:13:34;;;;;;;6.65;5.37;;;;;;;31.51;42.24;98740.67;1732461;81;21441;-53
2021/08/02 00:16:06;;;;;;;5.97;5.47;;;;;;;31.49;42.24;98725.06;1756290;81;21029;-54
2021/08/02 00:18:34;;;;;;;5.47;5.08;;;;;;;31.48;42.25;98721.48;1753753;81;21115;-51
2021/08/02 00:21:05;;;;;;;5.85;5.35;;;;;;;31.48;42.28;98720.66;1751345;81;21551;-53
2021/08/02 00:23:33;;;;;;;5.60;5.08;;;;;;;31.47;42.26;98729.34;1730090;81;21761;-51
2021/08/02 00:26:02;;;;;;;6.05;5.55;;;;;;;31.47;42.28;98727.98;1729904;81;21080;-52
2021/08/02 00:28:30;;;;;;;6.05;5.45;;;;;;;31.46;42.32;98727.66;1730021;81;21503;-53
2021/08/02 00:30:56;;;;;;;6.22;5.72;;;;;;;31.46;42.31;98730.91;1730185;81;21033;-52
2021/08/02 00:33:23;;;;;;;6.12;5.53;;;;;;;31.45;42.33;98719.18;1729778;81;21024;-50
2021/08/02 00:36:03;;;;;;;5.90;5.40;;;;;;;31.44;42.34;98706.65;1747838;82;21145;-52
2021/08/02 00:39:00;;;;;;;7.12;5.30;;;;;;;31.44;42.31;98698.50;1747621;82;21078;-52
2021/08/02 00:42:00;;;;;;;5.50;5.00;;;;;;;31.44;42.33;98697.14;1747788;82;20988;-52
2021/08/02 00:44:50;;;;;;;5.95;5.45;;;;;;;31.42;42.33;98691.58;1724475;82;21091;-52
2021/08/02 00:47:19;;;;;;;5.78;5.33;;;;;;;31.42;42.33;98682.92;1724471;82;21058;-53
2021/08/02 00:49:55;;;;;;;5.65;5.08;;;;;;;31.40;42.36;98675.47;1724131;82;21139;-52
2021/08/02 00:52:22;;;;;;;6.20;5.55;;;;;;;31.39;42.36;98673.82;1750990;80;21528;-53
2021/08/02 00:54:49;;;;;;;6.17;5.58;;;;;;;31.39;42.37;98671.11;1750828;81;21052;-54
2021/08/02 00:57:18;;;;;;;5.83;5.33;;;;;;;31.38;42.40;98670.78;1708820;83;21589;-52
2021/08/02 00:59:45;;;;;;;7.12;6.42;;;;;;;31.38;42.40;98666.70;1681333;82;21069;-50
2021/08/02 01:02:12;;;;;;;5.92;5.42;;;;;;;31.38;42.40;98663.98;1747699;82;21783;-50
2021/08/02 01:04:39;;;;;;;6.53;5.42;;;;;;;31.38;42.41;98661.80;1696729;81;21029;-50
2021/08/02 01:07:09;;;;;;;8.03;5.58;;;;;;;31.36;42.41;98657.92;1726246;83;21586;-52
2021/08/02 01:09:40;;;;;;;6.37;5.67;;;;;;;31.36;42.40;98656.56;1744706;81;21015;-52
2021/08/02 01:12:10;;;;;;;8.18;5.55;;;;;;;31.36;42.41;98649.77;1756352;81;21544;-53
2021/08/02 01:14:39;;;;;;;6.75;5.87;;;;;;;31.34;42.39;98638.28;1756459;81;21529;-52
2021/08/02 01:17:07;;;;;;;5.85;5.35;;;;;;;31.35;42.42;98635.86;1756175;81;21654;-53
2021/08/02 01:19:35;;;;;;;7.00;5.80;;;;;;;31.34;42.41;98631.48;1756602;81;21121;-52
2021/08/02 01:22:03;;;;;;;6.40;5.75;;;;;;;31.33;42.40;98624.36;1732709;81;21113;-49
2021/08/02 01:24:33;;;;;;;6.10;5.53;;;;;;;31.33;42.40;98618.10;1709281;81;21014;-50
2021/08/02 01:27:29;;;;;;;6.25;5.65;;;;;;;31.32;42.42;98626.79;1749996;81;21154;-47
2021/08/02 01:30:23;;;;;;;6.10;5.50;;;;;;;31.31;42.44;98630.54;1747926;82;21040;-52
2021/08/02 01:32:51;;;;;;;6.03;5.47;;;;;;;31.31;42.44;98635.97;1725355;82;21384;-50
2021/08/02 01:35:20;;;;;;;6.33;5.72;;;;;;;31.29;42.46;98629.92;1748357;81;21070;-50
2021/08/02 01:37:47;;;;;;;6.17;5.67;;;;;;;31.29;42.46;98631.28;1724060;82;21051;-51
2021/08/02 01:40:15;;;;;;;5.92;5.35;;;;;;;31.27;42.47;98615.67;1748277;82;21121;-51
2021/08/02 01:42:43;;;;;;;8.83;5.92;;;;;;;31.27;42.47;98610.24;1724205;82;21036;-51
2021/08/02 01:45:11;;;;;;;6.60;6.00;;;;;;;31.25;42.48;98598.75;1746996;82;21098;-50
2021/08/02 01:47:46;;;;;;;9.00;5.58;;;;;;;31.25;42.49;98593.31;1724263;82;21581;-51
2021/08/02 01:50:24;;;;;;;7.92;6.15;;;;;;;31.24;42.50;98591.13;1747811;82;20980;-53
2021/08/02 01:52:57;;;;;;;6.40;5.87;;;;;;;31.24;42.52;98605.25;1747744;81;21123;-52
2021/08/02 01:55:24;;;;;;;6.15;5.58;;;;;;;31.23;42.51;98604.39;1746974;82;21031;-53
2021/08/02 01:58:03;;;;;;;6.35;5.78;;;;;;;31.22;42.53;98605.45;1741860;82;21534;-52
2021/08/02 02:00:33;;;;;;;6.53;5.90;;;;;;;31.22;42.50;98607.31;1712045;83;21053;-51
2021/08/02 02:03:11;;;;;;;6.92;6.30;;;;;;;31.21;42.54;98598.34;1705632;84;21048;-53
2021/08/02 02:05:48;;;;;;;6.20;5.60;;;;;;;31.20;42.54;98596.66;1736080;81;21169;-52
2021/08/02 02:08:24;;;;;;;7.45;5.58;;;;;;;31.20;42.56;98590.39;1735064;82;21064;-52
2021/08/02 02:10:58;;;;;;;7.05;5.80;;;;;;;31.20;42.55;98589.03;1735067;82;21578;-51
2021/08/02 02:13:42;;;;;;;6.03;5.53;;;;;;;31.18;42.55;98591.96;1678709;84;21565;-52
2021/08/02 02:16:10;;;;;;;6.20;5.60;;;;;;;31.18;42.57;98591.96;1677967;83;21118;-52
2021/08/02 02:18:40;;;;;;;5.50;5.10;;;;;;;31.18;42.58;98595.20;1720710;83;21569;-53
2021/08/02 02:21:07;;;;;;;7.10;5.70;;;;;;;31.17;42.57;98584.88;1720595;83;21070;-52
2021/08/02 02:23:35;;;;;;;6.17;5.37;;;;;;;31.16;42.57;98586.44;1720921;83;21079;-51
2021/08/02 02:26:02;;;;;;;6.12;5.62;;;;;;;31.17;42.59;98594.88;1672774;83;21078;-51
2021/08/02 02:28:31;;;;;;;5.97;5.50;;;;;;;31.17;42.63;98596.24;1720800;83;21118;-53
2021/08/02 02:30:59;;;;;;;6.37;5.87;;;;;;;31.16;42.63;98591.87;1695766;83;21232;-53
2021/08/02 02:33:28;;;;;;;5.80;5.30;;;;;;;31.17;42.62;98592.16;1720565;83;21011;-51
2021/08/02 02:35:55;;;;;;;6.40;5.90;;;;;;;31.17;42.60;98594.88;1720331;83;21030;-50
2021/08/02 02:38:22;;;;;;;6.05;5.55;;;;;;;31.17;42.62;98610.69;1720486;83;21038;-50
2021/08/02 02:40:49;;;;;;;6.45;5.80;;;;;;;31.18;42.59;98619.66;1696318;83;21075;-52
2021/08/02 02:43:17;;;;;;;6.05;5.55;;;;;;;31.17;42.59;98622.91;1696375;83;21106;-50
2021/08/02 02:45:45;;;;;;;6.00;5.37;;;;;;;31.19;42.58;98634.94;1720572;83;21671;-50
2021/08/02 02:48:14;;;;;;;6.35;5.75;;;;;;;31.19;42.57;98637.12;1696234;83;21082;-52
2021/08/02 02:50:42;;;;;;;6.25;5.70;;;;;;;31.20;42.52;98625.72;1696057;83;21061;-52
2021/08/02 02:53:09;;;;;;;6.22;5.62;;;;;;;31.22;42.49;98633.13;1720543;83;21038;-53
2021/08/02 02:55:37;;;;;;;5.90;5.40;;;;;;;31.23;42.44;98631.56;1696562;83;21202;-53
2021/08/02 02:58:04;;;;;;;6.22;5.67;;;;;;;31.26;42.37;98624.89;1703387;83;21582;-53
2021/08/02 03:00:31;;;;;;;6.25;5.67;;;;;;;31.30;42.32;98627.49;1713272;82;21032;-52
2021/08/02 03:02:58;;;;;;;6.20;5.60;;;;;;;31.33;42.27;98628.44;1724082;82;21035;-47
2021/08/02 03:05:26;;;;;;;8.05;5.62;;;;;;;31.37;42.21;98631.07;1737783;81;20977;-49
2021/08/02 03:07:58;;;;;;;6.25;5.65;;;;;;;31.41;42.09;98639.11;1726367;83;21025;-52
2021/08/02 03:10:27;;;;;;;6.72;6.00;;;;;;;31.48;41.98;98644.54;1726208;82;21571;-52
2021/08/02 03:12:55;;;;;;;5.92;5.35;;;;;;;31.52;41.86;98653.97;1726020;81;21032;-53
2021/08/02 03:15:22;;;;;;;5.47;4.97;;;;;;;31.55;41.76;98654.91;1703380;83;21567;-53
2021/08/02 03:17:49;;;;;;;6.25;5.47;;;;;;;31.56;41.72;98650.33;1726289;83;22139;-52
2021/08/02 03:20:16;;;;;;;6.12;5.53;;;;;;;31.57;41.72;98656.06;1726307;83;21124;-51
2021/08/02 03:22:52;;;;;;;6.40;5.80;;;;;;;31.60;41.65;98657.01;1703238;83;21050;-51
2021/08/02 03:25:30;;;;;;;6.70;6.00;;;;;;;31.61;41.62;98649.17;1703251;83;21571;-53
2021/08/02 03:28:06;;;;;;;5.78;5.28;;;;;;;31.63;41.57;98662.03;1726149;82;21108;-52
2021/08/02 03:30:35;;;;;;;5.85;5.45;;;;;;;31.68;41.55;98664.12;1696901;83;21029;-50
2021/08/02 03:33:02;;;;;;;5.87;5.37;;;;;;;31.76;41.43;98667.45;1703305;83;21077;-51
2021/08/02 03:35:30;;;;;;;5.85;5.33;;;;;;;31.91;41.18;98671.31;1726240;83;21024;-54
2021/08/02 03:37:57;;;;;;;5.33;4.83;;;;;;;32.07;40.87;98656.44;1726358;83;21052;-49
2021/08/02 03:40:23;;;;;;;6.35;5.75;;;;;;;32.25;40.56;98644.05;1726361;83;21085;-51
2021/08/02 03:42:50;;;;;;;5.87;5.28;;;;;;;32.42;40.19;98628.89;1703518;83;21065;-51
2021/08/02 03:45:19;;;;;;;5.60;5.10;;;;;;;32.63;39.85;98622.30;1703281;83;22004;-52
2021/08/02 03:47:46;;;;;;;5.83;5.33;;;;;;;32.84;39.43;98621.14;1703430;83;21062;-53
2021/08/02 03:50:14;;;;;;;5.62;5.12;;;;;;;33.00;39.11;98612.13;1726306;83;21535;-53
2021/08/02 03:52:40;;;;;;;5.65;5.15;;;;;;;33.11;38.81;98605.44;1703469;83;21033;-52
2021/08/02 03:55:08;;;;;;;5.35;4.95;;;;;;;33.28;38.52;98593.48;1726164;83;21559;-52
2021/08/02 03:57:35;;;;;;;5.37;4.87;;;;;;;33.49;38.13;98587.34;1726185;83;21143;-50
2021/08/02 04:00:03;;;;;;;5.80;5.20;;;;;;;33.69;37.72;98596.17;1726147;83;21533;-52
2021/08/02 04:02:32;;;;;;;5.67;5.17;;;;;;;33.92;37.32;98597.39;1724844;83;21065;-53
2021/08/02 04:04:59;;;;;;;4.75;4.45;;;;;;;34.12;36.94;98593.06;1734590;81;21056;-53
2021/08/02 04:07:25;;;;;;;5.55;5.15;;;;;;;34.35;36.55;98601.95;1756140;81;21528;-52
2021/08/02 04:09:52;;;;;;;5.40;4.97;;;;;;;34.52;36.19;98604.05;1732729;81;21234;-53
2021/08/02 04:12:19;;;;;;;6.17;5.58;;;;;;;34.69;35.85;98600.95;1727604;82;21069;-51
2021/08/02 04:14:47;;;;;;;5.33;4.83;;;;;;;34.85;35.56;98593.18;1703189;83;21129;-49
2021/08/02 04:17:13;;;;;;;4.53;4.20;;;;;;;34.89;35.38;98596.59;1726278;83;21069;-52
2021/08/02 04:19:40;;;;;;;5.67;5.17;;;;;;;34.84;35.38;98591.53;1703782;83;21140;-53
2021/08/02 04:22:06;;;;;;;4.80;4.40;;;;;;;34.73;35.47;98582.22;1703495;83;21124;-52
2021/08/02 04:24:33;;;;;;;6.53;4.97;;;;;;;34.59;35.65;98584.29;1726436;82;21089;-53
2021/08/02 04:26:59;;;;;;;5.25;4.75;;;;;;;34.43;35.89;98587.12;1703360;83;21029;-55
2021/08/02 04:29:26;;;;;;;5.70;5.20;;;;;;;34.26;36.13;98572.45;1703200;83;21562;-51
2021/08/02 04:31:53;;;;;;;4.97;4.65;;;;;;;34.12;36.37;98569.86;1726215;83;22167;-52
2021/08/02 04:34:19;;;;;;;5.17;4.72;;;;;;;33.97;36.59;98548.41;1703480;83;21657;-53
2021/08/02 04:36:46;;;;;;;5.12;4.65;;;;;;;33.85;36.81;98559.80;1726241;83;21595;-52
2021/08/02 04:39:13;;;;;;;5.10;4.75;;;;;;;33.74;37.04;98575.55;1726496;82;21069;-53
2021/08/02 04:41:39;;;;;;;5.70;5.17;;;;;;;33.65;37.23;98585.91;1726057;83;21093;-50
2021/08/02 04:44:06;;;;;;;5.55;5.05;;;;;;;33.55;37.41;98587.78;1703169;83;21089;-53
2021/08/02 04:46:33;;;;;;;5.28;4.67;;;;;;;33.49;37.52;98585.97;1703377;83;21045;-54
2021/08/02 04:49:00;;;;;;;5.17;4.67;;;;;;;33.41;37.69;98573.98;1703142;83;21100;-51
2021/08/02 04:51:27;;;;;;;5.33;4.80;;;;;;;33.35;37.84;98575.70;1728883;81;21014;-54
2021/08/02 04:53:53;;;;;;;5.50;4.90;;;;;;;33.29;37.92;98569.26;1717784;83;21007;-54
2021/08/02 04:56:21;;;;;;;5.75;5.17;;;;;;;33.23;38.04;98561.97;1722883;83;21173;-54
2021/08/02 04:58:47;;;;;;;5.87;5.37;;;;;;;33.18;38.14;98569.98;1705496;84;21107;-54
2021/08/02 05:01:14;;;;;;;6.15;5.55;;;;;;;33.14;38.23;98568.73;1733766;82;21029;-53
2021/08/02 05:03:40;;;;;;;5.90;5.22;;;;;;;33.12;38.26;98562.14;1741676;82;21012;-52
2021/08/02 05:06:07;;;;;;;6.30;5.42;;;;;;;33.08;38.36;98562.27;1725880;82;21060;-51
2021/08/02 05:08:33;;;;;;;7.83;5.85;;;;;;;33.05;38.43;98555.07;1720583;83;21080;-53
2021/08/02 05:11:02;;;;;;;6.45;5.85;;;;;;;33.01;38.49;98553.32;1720498;83;20993;-53
2021/08/02 05:13:29;;;;;;;6.03;5.53;;;;;;;32.99;38.59;98536.91;1724570;82;21011;-51
2021/08/02 05:15:55;;;;;;;6.37;5.75;;;;;;;32.93;38.64;98523.63;1708059;82;21618;-53
2021/08/02 05:18:23;;;;;;;6.87;6.12;;;;;;;32.90;38.71;98516.74;1710430;82;21023;-56
2021/08/02 05:20:50;;;;;;;8.08;5.67;;;;;;;32.87;38.77;98504.92;1717893;82;21109;-53
2021/08/02 05:23:16;;;;;;;6.65;6.05;;;;;;;32.84;38.84;98505.36;1724771;82;21038;-51
2021/08/02 05:25:43;;;;;;;6.90;6.20;;;;;;;32.81;38.92;98516.70;1724861;82;21136;-50
2021/08/02 05:28:09;;;;;;;6.92;6.28;;;;;;;32.79;38.98;98504.38;1724847;82;21097;-55
2021/08/02 05:30:36;;;;;;;7.08;6.35;;;;;;;32.76;39.00;98507.82;1724894;82;21129;-54
2021/08/02 05:33:02;;;;;;;7.12;6.42;;;;;;;32.73;39.08;98511.52;1750418;82;21128;-54
2021/08/02 05:35:28;;;;;;;6.92;6.28;;;;;;;32.70;39.13;98516.05;1724923;82;21277;-53
2021/08/02 05:37:55;;;;;;;7.65;6.70;;;;;;;32.67;39.20;98509.17;1750340;82;21022;-54
2021/08/02 05:40:22;;;;;;;7.65;6.85;;;;;;;32.64;39.25;98509.60;1750486;82;21081;-54
2021/08/02 05:42:49;;;;;;;7.08;6.37;;;;;;;32.63;39.29;98498.92;1724978;82;21046;-54
2021/08/02 05:45:15;;;;;;;7.95;6.50;;;;;;;32.60;39.35;98502.91;1749798;82;21085;-51
2021/08/02 05:47:42;;;;;;;7.78;6.92;;;;;;;32.58;39.41;98494.96;1749897;81;21115;-53
2021/08/02 05:50:10;;;;;;;7.92;6.33;;;;;;;32.57;39.45;98495.17;1750427;82;21014;-54
2021/08/02 05:52:38;;;;;;;7.60;6.25;;;;;;;32.56;39.51;98493.50;1750617;82;21574;-51
2021/08/02 05:55:06;;;;;;;7.33;6.03;;;;;;;32.55;39.55;98473.61;1750387;82;21050;-53
2021/08/02 05:57:33;;;;;;;6.80;6.12;;;;;;;32.56;39.56;98477.98;1724852;82;21372;-55
2021/08/02 06:00:01;;;;;;;6.92;6.33;;;;;;;32.57;39.58;98481.03;1742539;82;21095;-54
2021/08/02 06:02:28;;;;;;;6.75;6.15;;;;;;;32.59;39.56;98478.91;1695839;83;20976;-54
2021/08/02 06:04:54;;;;;;;6.85;6.35;;;;;;;32.61;39.59;98480.08;1705091;82;21480;-52
2021/08/02 06:07:21;;;;;;;6.53;5.92;;;;;;;32.62;39.59;98496.74;1719173;83;21058;-50
2021/08/02 06:09:50;;;;;;;6.58;6.00;;;;;;;32.64;39.60;98493.80;1719376;83;20990;-52
2021/08/02 06:12:16;;;;;;;6.75;6.05;;;;;;;32.65;39.69;98491.36;1709478;82;21409;-52
2021/08/02 06:14:43;;;;;;;6.42;5.85;;;;;;;32.64;39.71;98491.90;1725272;81;21054;-50
2021/08/02 06:17:09;;;;;;;7.30;6.12;;;;;;;32.66;39.74;98496.59;1724884;82;21073;-50
2021/08/02 06:19:37;;;;;;;6.50;5.90;;;;;;;32.67;39.74;98508.34;1750688;82;21054;-52
2021/08/02 06:22:04;;;;;;;6.80;6.10;;;;;;;32.67;39.78;98497.45;1750458;82;20987;-54
2021/08/02 06:24:30;;;;;;;6.37;5.78;;;;;;;32.66;39.82;98503.94;1725146;82;21149;-54
2021/08/02 06:26:57;;;;;;;5.97;5.47;;;;;;;32.66;39.86;98512.11;1724993;82;20986;-53
2021/08/02 06:29:23;;;;;;;8.85;6.10;;;;;;;32.68;39.87;98514.08;1750458;82;21001;-55
2021/08/02 06:31:51;;;;;;;7.35;6.55;;;;;;;32.70;39.88;98496.98;1750443;82;21074;-55
2021/08/02 06:34:17;;;;;;;6.92;6.28;;;;;;;32.72;39.93;98498.98;1750127;82;21391;-54
2021/08/02 06:36:44;;;;;;;7.80;6.25;;;;;;;32.74;39.87;98496.86;1750149;82;21108;-54
2021/08/02 06:39:11;;;;;;;6.30;5.70;;;;;;;32.77;39.84;98495.06;1707743;82;21388;-53
2021/08/02 06:41:37;;;;;;;7.35;6.62;;;;;;;32.80;39.81;98493.77;1735008;82;21051;-54
2021/08/02 06:44:05;;;;;;;6.30;5.65;;;;;;;32.82;39.80;98492.50;1724805;82;21552;-53
2021/08/02 06:46:31;;;;;;;7.25;6.28;;;;;;;32.84;39.83;98497.73;1735161;82;21029;-54
2021/08/02 06:48:58;;;;;;;8.25;6.97;;;;;;;32.84;39.84;98490.38;1724968;82;21943;-53
2021/08/02 06:51:25;;;;;;;7.17;6.37;;;;;;;32.87;39.87;98491.30;1707794;82;21526;-53
2021/08/02 06:53:53;;;;;;;7.40;6.28;;;;;;;32.88;39.82;98484.78;1734898;82;21072;-52
2021/08/02 06:56:20;;;;;;;6.97;6.37;;;;;;;32.92;39.77;98494.19;1724609;82;21825;-53
2021/08/02 06:58:46;;;;;;;7.65;6.90;;;;;;;32.95;39.76;98489.66;1734782;81;21072;-53
2021/08/02 07:01:13;;;;;;;8.33;6.28;;;;;;;32.97;39.74;98482.63;1709153;82;21695;-56
2021/08/02 07:03:40;;;;;;;8.60;6.70;;;;;;;33.00;39.73;98482.70;1731508;82;21709;-54
2021/08/02 07:06:07;;;;;;;7.75;6.95;;;;;;;33.00;39.73;98480.80;1710224;82;21157;-53
2021/08/02 07:08:38;;;;;;;7.50;6.60;;;;;;;33.01;39.75;98485.20;1735556;82;21046;-53
2021/08/02 07:11:07;;;;;;;8.43;6.67;;;;;;;33.01;39.77;98482.47;1711544;82;21097;-54
2021/08/02 07:13:34;;;;;;;7.58;6.78;;;;;;;33.02;39.75;98483.30;1735561;82;23249;-50
2021/08/02 07:16:02;;;;;;;9.68;6.50;;;;;;;33.03;39.74;98490.42;1749948;81;21050;-52
2021/08/02 07:18:32;;;;;;;7.50;6.80;;;;;;;33.03;39.74;98489.89;1750557;81;21038;-51
2021/08/02 07:20:58;;;;;;;8.23;7.17;;;;;;;33.04;39.77;98492.93;1750627;81;21504;-50
2021/08/02 07:23:25;;;;;;;8.10;7.08;;;;;;;33.05;39.76;98493.25;1750407;82;21113;-48
2021/08/02 07:25:52;;;;;;;9.93;6.70;;;;;;;33.07;39.76;98498.45;1750545;81;21172;-52
2021/08/02 07:28:19;;;;;;;9.18;7.50;;;;;;;33.07;39.72;98497.08;1750340;81;21046;-55
2021/08/02 07:30:46;;;;;;;8.88;7.20;;;;;;;33.08;39.72;98501.48;1750362;82;21552;-53
2021/08/02 07:33:12;;;;;;;8.40;6.92;;;;;;;33.10;39.71;98503.45;1749976;81;22099;-55
2021/08/02 07:35:39;;;;;;;7.33;6.58;;;;;;;33.12;39.69;98504.09;1750031;81;21566;-55
2021/08/02 07:38:05;;;;;;;7.45;6.75;;;;;;;33.12;39.67;98509.00;1750333;82;21057;-55
2021/08/02 07:40:32;;;;;;;7.55;6.67;;;;;;;33.14;39.64;98508.78;1749903;82;21545;-53
2021/08/02 07:42:59;;;;;;;9.45;7.05;;;;;;;33.18;39.60;98520.09;1750417;82;21674;-52
2021/08/02 07:45:25;;;;;;;8.58;6.75;;;;;;;33.19;39.55;98519.88;1750377;82;22183;-53
2021/08/02 07:47:52;;;;;;;8.50;6.97;;;;;;;33.19;39.66;98521.23;1750045;81;20954;-51
2021/08/02 07:50:19;;;;;;;7.72;6.97;;;;;;;33.22;39.77;98525.39;1749856;82;21034;-52
2021/08/02 07:52:46;;;;;;;9.10;6.97;;;;;;;33.23;39.77;98517.52;1750451;82;20967;-50
2021/08/02 07:55:12;;;;;;;8.45;6.83;;;;;;;33.24;39.74;98516.48;1749769;82;21100;-49
2021/08/02 07:57:39;;;;;;;7.45;6.72;;;;;;;33.23;39.68;98525.16;1749759;82;21010;-53
2021/08/02 08:00:07;;;;;;;8.18;6.75;;;;;;;33.23;39.63;98516.16;1750712;81;21042;-53
2021/08/02 08:02:38;;;;;;;11.57;6.47;;;;;;;33.22;39.59;98519.42;1750386;82;21170;-52
2021/08/02 08:05:06;;;;;;;7.25;5.65;;;;;;;33.20;39.58;98520.70;1750269;81;21059;-53
2021/08/02 08:07:50;;;;;;;8.25;6.15;;;;;;;33.19;39.52;98532.14;1714765;82;21002;-52
2021/08/02 08:10:19;;;;;;;7.28;6.20;;;;;;;33.17;39.48;98530.68;1748179;80;21010;-52
2021/08/02 08:12:46;;;;;;;6.03;5.40;;;;;;;33.15;39.39;98530.90;1735439;80;21056;-46
2021/08/02 08:15:13;;;;;;;6.65;5.95;;;;;;;33.14;39.31;98530.58;1736497;80;21152;-51
2021/08/02 08:17:42;;;;;;;7.55;6.05;;;;;;;33.13;39.24;98542.53;1738053;80;21544;-51
2021/08/02 08:20:10;;;;;;;8.25;5.97;;;;;;;33.11;39.16;98533.75;1741267;80;21006;-50
2021/08/02 08:22:37;;;;;;;9.20;5.42;;;;;;;33.09;39.03;98533.97;1734034;80;21062;-52
2021/08/02 08:25:04;;;;;;;9.83;5.37;;;;;;;33.08;38.96;98530.10;1746051;80;21025;-50
2021/08/02 08:27:31;;;;;;;9.10;5.42;;;;;;;33.06;38.89;98520.78;1718061;81;21085;-52
2021/08/02 08:29:57;;;;;;;9.18;5.72;;;;;;;33.07;38.80;98539.33;1750098;82;21461;-49
2021/08/02 08:32:24;;;;;;;7.67;5.30;;;;;;;33.06;38.68;98536.31;1717942;81;21049;-51
2021/08/02 08:34:51;;;;;;;11.30;5.08;;;;;;;33.05;38.59;98531.91;1717848;82;21105;-54
2021/08/02 08:37:17;;;;;;;9.50;5.72;;;;;;;33.04;38.45;98531.62;1750502;81;21072;-53
2021/08/02 08:39:44;;;;;;;6.97;5.15;;;;;;;33.03;38.30;98536.22;1750416;82;21895;-53
2021/08/02 08:42:10;;;;;;;6.83;4.78;;;;;;;33.03;38.16;98546.29;1717598;82;21113;-53
2021/08/02 08:44:37;;;;;;;9.10;4.85;;;;;;;33.01;37.98;98540.23;1693667;82;21037;-54
2021/08/02 08:47:04;;;;;;;10.08;4.92;;;;;;;33.01;37.81;98533.42;1717786;81;21033;-52
2021/08/02 08:49:31;;;;;;;6.05;4.97;;;;;;;33.00;37.71;98529.84;1718052;82;21462;-53
2021/08/02 08:51:57;;;;;;;16.37;5.25;;;;;;;33.00;37.64;98539.91;1750035;82;21563;-46
2021/08/02 08:54:30;;;;;;;8.05;4.47;;;;;;;33.02;37.57;98535.07;1750366;82;21010;-52
2021/08/02 08:56:58;;;;;;;10.50;4.70;;;;;;;33.03;37.42;98523.13;1717949;82;21492;-49
2021/08/02 08:59:25;;;;;;;7.83;4.37;;;;;;;33.04;37.40;98520.72;1749737;82;21085;-54
2021/08/02 09:02:03;;;;;;;5.83;4.37;;;;;;;33.06;37.38;98519.95;1695907;83;21219;-54
2021/08/02 09:04:30;;;;;;;6.62;4.10;;;;;;;33.08;37.35;98520.56;1720313;81;22191;-51
2021/08/02 09:07:00;;;;;;;6.03;4.65;;;;;;;33.10;37.31;98525.25;1750173;82;21030;-52
2021/08/02 09:09:33;;;;;;;7.50;4.53;;;;;;;33.11;37.29;98528.30;1717602;82;21093;-53
2021/08/02 09:12:16;;;;;;;7.37;4.70;;;;;;;33.13;37.25;98515.27;1717693;82;21062;-52
2021/08/02 09:14:54;;;;;;;9.08;4.30;;;;;;;33.14;37.23;98527.86;1750409;82;21042;-53
2021/08/02 09:17:38;;;;;;;6.90;4.50;;;;;;;33.15;37.20;98528.17;1750285;82;21128;-52
2021/08/02 09:20:07;;;;;;;;;;;;;;;33.16;37.16;98532.58;1745011;80;21120;-52
2021/08/02 09:22:35;;;;;;;5.62;3.60;;;;;;;33.18;37.14;98525.55;1733829;80;20269;-52
2021/08/02 09:25:14;;;;;;;6.72;3.77;;;;;;;33.18;37.15;98529.63;1712235;80;21108;-52
2021/08/02 09:27:42;;;;;;;11.75;4.55;;;;;;;33.19;37.12;98528.05;1735302;80;20979;-53
2021/08/02 09:30:17;;;;;;;7.47;4.28;;;;;;;33.21;37.06;98535.47;1701866;80;21104;-52
2021/08/02 09:32:55;;;;;;;4.97;3.98;;;;;;;33.22;37.05;98541.74;1735685;80;21057;-50
2021/08/02 09:35:38;;;;;;;7.53;4.10;;;;;;;33.23;37.01;98540.16;1736117;80;21057;-52
2021/08/02 09:38:08;;;;;;;7.53;4.40;;;;;;;33.25;36.96;98539.39;1722872;80;21007;-51
2021/08/02 09:40:52;;;;;;;6.17;3.75;;;;;;;33.27;36.95;98541.39;1736389;80;21089;-51
2021/08/02 09:43:23;;;;;;;4.70;3.98;;;;;;;33.27;36.93;98546.84;1736156;80;23069;-50
2021/08/02 09:45:56;;;;;;;5.35;3.47;;;;;;;33.28;36.90;98549.86;1735782;80;21030;-53
2021/08/02 09:48:44;;;;;;;6.90;4.15;;;;;;;33.28;36.86;98547.13;1721660;80;21042;-52
2021/08/02 09:51:17;;;;;;;5.85;3.87;;;;;;;33.28;36.81;98559.94;1711589;80;21081;-52
2021/08/02 09:53:51;;;;;;;7.20;3.83;;;;;;;33.28;36.80;98555.84;1735842;80;20966;-50
2021/08/02 09:56:24;;;;;;;5.03;3.65;;;;;;;33.29;36.75;98556.17;1735795;80;21785;-51
2021/08/02 09:58:52;;;;;;;6.35;3.70;;;;;;;33.28;36.73;98564.85;1739303;80;25939;-49
2021/08/02 10:01:20;;;;;;;6.30;3.80;;;;;;;33.30;36.70;98563.27;1740724;80;21041;-50
2021/08/02 10:03:48;;;;;;;7.97;4.45;;;;;;;33.30;36.64;98567.36;1743294;80;21333;-53
2021/08/02 10:06:16;;;;;;;7.25;3.77;;;;;;;33.31;36.60;98571.23;1743067;80;21515;-51
2021/08/02 10:08:44;;;;;;;7.30;3.72;;;;;;;33.31;36.57;98569.86;1743300;80;21085;-54
2021/08/02 10:11:12;;;;;;;4.90;3.62;;;;;;;33.31;36.54;98578.04;1741490;80;21128;-53
2021/08/02 10:13:43;;;;;;;5.35;4.12;;;;;;;33.32;36.51;98582.45;1743242;80;21044;-50
2021/08/02 10:16:14;;;;;;;10.45;4.22;;;;;;;33.35;36.52;98583.05;1727104;80;21090;-52
2021/08/02 10:18:43;;;;;;;9.83;4.85;;;;;;;33.35;36.48;98577.59;1714036;80;21069;-52
2021/08/02 10:21:11;;;;;;;7.80;4.50;;;;;;;33.35;36.49;98586.60;1739644;80;21189;-53
2021/08/02 10:23:38;;;;;;;6.83;4.60;;;;;;;33.38;36.49;98585.34;1712621;80;21037;-50
2021/08/02 10:26:26;;;;;;;6.15;4.47;;;;;;;33.39;36.46;98586.98;1728952;80;21071;-52
2021/08/02 10:28:58;;;;;;;7.53;4.75;;;;;;;33.41;36.44;98584.89;1740642;80;21047;-53
2021/08/02 10:31:26;;;;;;;10.90;5.03;;;;;;;33.44;36.41;98600.78;1741920;80;21040;-50
2021/08/02 10:33:55;;;;;;;12.40;5.10;;;;;;;33.45;36.39;98607.91;1743274;80;21599;-53
2021/08/02 10:36:22;;;;;;;7.62;5.28;;;;;;;33.46;36.36;98598.69;1718641;80;21030;-53
2021/08/02 10:38:52;;;;;;;10.00;5.25;;;;;;;33.47;36.32;98595.73;1742506;80;21051;-48
2021/08/02 10:41:29;;;;;;;11.08;5.50;;;;;;;33.49;36.29;98595.52;1741115;80;21455;-52
2021/08/02 10:43:57;;;;;;;6.85;4.97;;;;;;;33.50;36.23;98595.27;1738071;80;21066;-47
2021/08/02 10:46:28;;;;;;;6.87;4.70;;;;;;;33.51;36.16;98592.03;1740415;80;22812;-50
2021/08/02 10:48:57;;;;;;;6.15;4.60;;;;;;;33.52;36.13;98593.67;1742190;80;21041;-50
2021/08/02 10:51:24;;;;;;;9.05;5.30;;;;;;;33.52;36.11;98589.59;1737277;80;21034;-52
2021/08/02 10:54:00;;;;;;;7.17;5.05;;;;;;;33.53;36.10;98601.35;1711005;80;20982;-49
2021/08/02 10:56:31;;;;;;;14.93;4.47;;;;;;;33.53;36.05;98610.36;1720898;80;21006;-52
2021/08/02 10:59:00;;;;;;;9.45;4.60;;;;;;;33.53;36.01;98606.80;1743621;80;21721;-52
2021/08/02 11:01:28;;;;;;;8.43;4.40;;;;;;;33.53;35.99;98601.35;1744544;80;21045;-53
2021/08/02 11:03:56;;;;;;;7.83;4.72;;;;;;;33.52;35.96;98607.31;1745284;80;21025;-51
2021/08/02 11:06:22;;;;;;;5.95;4.00;;;;;;;33.51;35.92;98602.94;1746273;80;21487;-52
2021/08/02 11:08:53;;;;;;;9.63;4.22;;;;;;;33.51;35.87;98605.13;1742551;80;20949;-50
2021/08/02 11:11:35;;;;;;;8.15;3.98;;;;;;;33.51;35.88;98612.48;1744903;80;21168;-52
2021/08/02 11:14:15;;;;;;;10.80;4.22;;;;;;;33.49;35.87;98603.70;1723262;80;21066;-52
2021/08/02 11:16:49;;;;;;;5.67;4.12;;;;;;;33.48;35.86;98608.83;1704131;82;21087;-51
2021/08/02 11:19:24;;;;;;;7.95;4.40;;;;;;;33.47;35.88;98603.06;1692924;82;21094;-52
2021/08/02 11:22:01;;;;;;;10.43;4.53;;;;;;;33.46;35.90;98605.50;1672615;82;21073;-51
2021/08/02 11:24:29;;;;;;;5.72;4.12;;;;;;;33.46;35.91;98604.14;1696674;82;21122;-52
2021/08/02 11:27:00;;;;;;;11.60;4.75;;;;;;;33.46;35.91;98593.23;1692234;81;38786;-45
2021/08/02 11:29:28;;;;;;;6.08;4.12;;;;;;;33.46;35.92;98585.05;1719728;81;21024;-52
2021/08/02 11:32:10;;;;;;;5.72;4.10;;;;;;;33.48;35.90;98582.93;1718475;81;21048;-53
2021/08/02 11:34:43;;;;;;;5.03;3.98;;;;;;;33.48;35.92;98582.93;1727189;81;21070;-53
2021/08/02 11:37:15;;;;;;;9.15;4.10;;;;;;;33.46;35.94;98576.33;1723519;81;21150;-53
2021/08/02 11:39:46;;;;;;;7.12;3.98;;;;;;;33.46;35.94;98572.24;1707690;81;20991;-48
2021/08/02 11:42:15;;;;;;;8.65;4.35;;;;;;;33.46;35.92;98570.05;1720157;81;21121;-51
2021/08/02 11:44:45;;;;;;;7.33;4.10;;;;;;;33.44;35.92;98573.52;1719463;81;21525;-51